createdAt,value
2023-03-22T00:02:54.398Z,4.09
2023-03-22T00:06:42.040Z,4.04
2023-03-22T00:10:13.520Z,3.97
2023-03-22T00:14:02.294Z,3.97
2023-03-22T00:17:51.128Z,3.95
2023-03-22T00:21:01.970Z,3.93
2023-03-22T00:24:13.521Z,3.91
2023-03-22T00:27:45.280Z,3.88
2023-03-22T00:31:14.196Z,3.85
2023-03-22T00:34:35.292Z,3.82
2023-03-22T00:38:00.786Z,3.79
2023-03-22T00:41:24.075Z,3.76
2023-03-22T00:45:12.859Z,3.74
2023-03-22T00:49:01.629Z,3.70
2023-03-22T00:52:40.283Z,3.69
2023-03-22T00:56:21.783Z,3.66
2023-03-22T00:59:30.331Z,3.65
2023-03-22T01:03:19.133Z,3.63
2023-03-22T01:06:58.883Z,3.61
2023-03-22T01:10:38.370Z,3.58
2023-03-22T01:13:57.980Z,3.55
2023-03-22T01:17:38.515Z,3.53
2023-03-22T01:21:16.506Z,3.51
2023-03-22T01:24:58.796Z,3.48
2023-03-22T01:28:17.582Z,3.44
2023-03-22T01:31:42.081Z,3.42
2023-03-22T01:35:29.364Z,3.37
2023-03-22T01:39:09.302Z,3.32
2023-03-22T01:42:46.853Z,3.29
2023-03-22T01:46:02.542Z,3.24
2023-03-22T01:49:25.430Z,3.22
2023-03-22T01:52:44.241Z,3.18
2023-03-22T01:56:37.734Z,3.14
2023-03-22T02:00:10.331Z,3.10
2023-03-22T02:03:50.067Z,3.05
2023-03-22T02:07:38.804Z,3.01
2023-03-22T02:10:50.201Z,2.97
2023-03-22T02:14:27.816Z,2.94
2023-03-22T02:17:46.180Z,2.91
2023-03-22T02:21:16.466Z,2.87
2023-03-22T02:24:51.916Z,2.85
2023-03-22T02:28:12.417Z,2.82
2023-03-22T02:31:51.424Z,2.78
2023-03-22T02:35:50.535Z,2.75
2023-03-22T02:39:40.809Z,2.71
2023-03-22T02:43:30.189Z,2.67
2023-03-22T02:47:10.142Z,2.64
2023-03-22T02:50:44.934Z,2.61
2023-03-22T02:54:33.756Z,2.58
2023-03-22T02:58:37.182Z,2.54
2023-03-22T03:02:37.784Z,2.49
2023-03-22T03:06:02.865Z,2.45
2023-03-22T03:09:51.624Z,2.42
2023-03-22T03:13:23.538Z,2.38
2023-03-22T03:16:28.735Z,2.36
2023-03-22T03:20:24.856Z,2.34
2023-03-22T03:23:59.392Z,2.33
2023-03-22T03:27:46.387Z,2.30
2023-03-22T03:31:35.221Z,2.30
2023-03-22T03:35:16.667Z,2.31
2023-03-22T03:38:49.691Z,2.32
2023-03-22T03:42:38.438Z,2.35
2023-03-22T03:46:20.083Z,2.36
2023-03-22T03:50:08.856Z,2.38
2023-03-22T03:53:47.495Z,2.38
2023-03-22T03:57:26.116Z,2.39
2023-03-22T04:01:14.903Z,2.41
2023-03-22T04:05:03.972Z,2.42
2023-03-22T04:08:22.308Z,2.42
2023-03-22T04:12:11.159Z,2.42
2023-03-22T04:15:32.854Z,2.41
2023-03-22T04:18:51.870Z,2.41
2023-03-22T04:22:40.650Z,2.40
2023-03-22T04:26:29.417Z,2.39
2023-03-22T04:30:10.977Z,2.38
2023-03-22T04:33:59.733Z,2.37
2023-03-22T04:37:47.133Z,2.34
2023-03-22T04:41:30.315Z,2.33
2023-03-22T04:44:39.892Z,2.30
2023-03-22T04:48:28.700Z,2.30
2023-03-22T04:52:08.103Z,2.28
2023-03-22T04:55:46.990Z,2.26
2023-03-22T04:59:29.056Z,2.25
2023-03-22T05:03:11.649Z,2.24
2023-03-22T05:06:55.580Z,2.25
2023-03-22T05:10:24.287Z,2.26
2023-03-22T05:14:13.137Z,2.28
2023-03-22T05:17:51.675Z,2.33
2023-03-22T05:21:40.488Z,2.40
2023-03-22T05:25:20.046Z,2.51
2023-03-22T05:28:39.888Z,2.60
2023-03-22T05:32:28.693Z,2.70
2023-03-22T05:36:07.592Z,2.80
2023-03-22T05:39:29.250Z,2.91
2023-03-22T05:42:54.521Z,3.00
2023-03-22T05:46:09.851Z,3.08
2023-03-22T05:49:42.865Z,3.20
2023-03-22T05:53:11.630Z,3.30
2023-03-22T05:57:12.341Z,3.44
2023-03-22T06:00:33.603Z,3.59
2023-03-22T06:04:34.236Z,3.75
2023-03-22T06:08:17.421Z,3.92
2023-03-22T06:12:06.289Z,4.11
2023-03-22T06:15:20.739Z,4.30
2023-03-22T06:18:11.689Z,4.50
2023-03-22T06:22:34.371Z,4.66
2023-03-22T06:39:16.916Z,5.85
2023-03-22T06:42:26.300Z,6.13
2023-03-22T06:45:56.537Z,6.16
2023-03-22T06:49:43.994Z,6.19
2023-03-22T06:53:32.807Z,6.23
2023-03-22T06:57:20.259Z,6.29
2023-03-22T07:00:57.633Z,6.35
2023-03-22T07:04:45.135Z,6.42
2023-03-22T07:08:21.278Z,6.49
2023-03-22T07:12:08.701Z,6.54
2023-03-22T07:15:46.645Z,6.60
2023-03-22T07:19:32.285Z,6.66
2023-03-22T07:23:19.687Z,6.73
2023-03-22T07:27:07.195Z,6.81
2023-03-22T07:30:46.761Z,6.88
2023-03-22T07:34:28.848Z,6.96
2023-03-22T07:38:39.307Z,7.05
2023-03-22T07:41:53.040Z,7.17
2023-03-22T07:45:46.211Z,7.29
2023-03-22T07:49:11.991Z,7.42
2023-03-22T07:53:17.710Z,7.56
2023-03-22T07:56:57.688Z,7.70
2023-03-22T08:00:45.293Z,7.83
2023-03-22T08:04:16.446Z,8.01
2023-03-22T08:08:18.576Z,8.14
2023-03-22T08:12:05.145Z,8.32
2023-03-22T08:15:42.350Z,8.52
2023-03-22T08:19:29.780Z,8.70
2023-03-22T08:23:09.838Z,8.85
2023-03-22T08:26:57.269Z,9.01
2023-03-22T08:30:47.543Z,9.17
2023-03-22T08:33:55.705Z,9.31
2023-03-22T08:37:43.080Z,9.42
2023-03-22T08:41:30.453Z,9.54
2023-03-22T08:45:07.553Z,9.63
2023-03-22T08:48:45.227Z,9.73
2023-03-22T08:52:35.430Z,9.84
2023-03-22T08:56:22.855Z,9.97
2023-03-22T09:00:10.270Z,10.08
2023-03-22T09:04:00.500Z,10.20
2023-03-22T09:07:47.969Z,10.31
2023-03-22T09:11:38.139Z,10.41
2023-03-22T09:15:25.506Z,10.48
2023-03-22T09:19:24.890Z,10.54
2023-03-22T09:23:04.886Z,10.60
2023-03-22T09:26:52.216Z,10.67
2023-03-22T09:30:39.850Z,10.72
2023-03-22T09:34:27.244Z,10.76
2023-03-22T09:38:14.661Z,10.83
2023-03-22T09:41:57.430Z,10.90
2023-03-22T09:45:36.506Z,10.93
2023-03-22T09:49:50.506Z,11.02
2023-03-22T09:53:40.232Z,11.08
2023-03-22T09:57:30.688Z,11.13
2023-03-22T10:01:13.688Z,11.18
2023-03-22T10:05:16.103Z,11.20
2023-03-22T10:09:06.266Z,11.24
2023-03-22T10:12:59.406Z,11.29
2023-03-22T10:16:37.927Z,11.33
2023-03-22T10:20:25.357Z,11.36
2023-03-22T10:24:12.722Z,11.38
2023-03-22T10:28:00.130Z,11.39
2023-03-22T10:31:47.588Z,11.41
2023-03-22T10:35:27.567Z,11.43
2023-03-22T10:39:17.774Z,11.44
2023-03-22T10:43:05.200Z,11.46
2023-03-22T10:46:52.709Z,11.50
2023-03-22T10:50:32.684Z,11.58
2023-03-22T10:54:05.842Z,11.63
2023-03-22T10:57:41.843Z,11.67
2023-03-22T11:01:29.426Z,11.70
2023-03-22T11:05:10.465Z,11.73
2023-03-22T11:09:00.627Z,11.78
2023-03-22T11:12:53.962Z,11.83
2023-03-22T11:16:31.301Z,11.88
2023-03-22T11:20:21.575Z,11.94
2023-03-22T11:24:02.150Z,12.00
2023-03-22T11:28:07.258Z,12.05
2023-03-22T11:32:08.283Z,12.10
2023-03-22T11:36:04.563Z,12.15
2023-03-22T11:39:51.412Z,12.17
2023-03-22T11:43:38.809Z,12.18
2023-03-22T11:47:28.822Z,12.18
2023-03-22T11:51:14.760Z,12.19
2023-03-22T11:55:11.103Z,12.21
2023-03-22T11:58:48.345Z,12.22
2023-03-22T12:02:38.604Z,12.22
2023-03-22T12:06:25.140Z,12.24
2023-03-22T12:10:21.716Z,12.28
2023-03-22T12:13:53.470Z,12.35
2023-03-22T12:17:46.045Z,12.41
2023-03-22T12:21:32.195Z,12.47
2023-03-22T12:25:25.628Z,12.54
2023-03-22T12:29:21.866Z,12.63
2023-03-22T12:33:17.962Z,12.70
2023-03-22T12:36:55.385Z,12.77
2023-03-22T12:40:48.829Z,12.83
2023-03-22T12:44:21.424Z,12.92
2023-03-22T12:48:08.922Z,13.01
2023-03-22T12:51:56.442Z,13.06
2023-03-22T12:55:31.794Z,13.15
2023-03-22T12:59:19.258Z,13.21
2023-03-22T13:03:08.616Z,13.27
2023-03-22T13:07:07.741Z,13.33
2023-03-22T13:11:11.866Z,13.40
2023-03-22T13:14:48.738Z,13.45
2023-03-22T13:18:38.848Z,13.50
2023-03-22T13:22:03.602Z,13.55
2023-03-22T13:25:59.842Z,13.56
2023-03-22T13:29:46.853Z,13.61
2023-03-22T13:33:36.973Z,13.63
2023-03-22T13:37:22.937Z,13.67
2023-03-22T13:41:26.852Z,13.72
2023-03-22T13:45:26.502Z,13.74
2023-03-22T13:49:13.963Z,13.78
2023-03-22T13:52:48.285Z,13.82
2023-03-22T13:56:50.683Z,13.84
2023-03-22T14:00:39.750Z,13.87
2023-03-22T14:04:30.052Z,13.87
2023-03-22T14:08:53.360Z,13.86
2023-03-22T14:12:17.213Z,13.84
2023-03-22T14:16:07.598Z,13.82
2023-03-22T14:19:56.238Z,13.79
